createdAt,value
2019-03-27T00:00:45.598Z,0.00
2019-03-27T00:01:45.578Z,0.00
2019-03-27T00:02:45.551Z,0.00
2019-03-27T00:03:45.534Z,0.00
2019-03-27T00:04:45.511Z,0.00
2019-03-27T00:05:45.483Z,0.00
2019-03-27T00:06:45.457Z,0.00
2019-03-27T00:07:45.435Z,0.00
2019-03-27T00:08:45.412Z,0.00
2019-03-27T00:09:45.394Z,0.00
2019-03-27T00:10:45.374Z,0.00
2019-03-27T00:11:45.341Z,0.00
2019-03-27T00:12:45.322Z,0.00
2019-03-27T00:13:45.295Z,0.00
2019-03-27T00:14:45.275Z,0.00
2019-03-27T00:15:45.250Z,0.00
2019-03-27T00:16:45.230Z,0.00
2019-03-27T00:17:45.200Z,0.00
2019-03-27T00:18:45.176Z,0.00
2019-03-27T00:19:45.157Z,0.00
2019-03-27T00:20:45.129Z,0.00
2019-03-27T00:21:45.107Z,0.00
2019-03-27T00:22:45.085Z,0.00
2019-03-27T00:23:45.066Z,0.00
2019-03-27T00:24:45.035Z,0.00
2019-03-27T00:25:45.013Z,0.00
2019-03-27T00:26:44.987Z,0.00
2019-03-27T00:27:44.965Z,0.00
2019-03-27T00:28:44.942Z,0.00
2019-03-27T00:29:44.916Z,0.00
2019-03-27T00:30:44.899Z,0.00
2019-03-27T00:31:44.876Z,0.00
2019-03-27T00:32:44.859Z,0.00
2019-03-27T00:33:44.823Z,0.00
2019-03-27T00:34:44.801Z,0.00
2019-03-27T00:35:44.779Z,0.00
2019-03-27T00:36:44.756Z,0.00
2019-03-27T00:37:44.731Z,0.00
2019-03-27T00:38:44.706Z,0.00
2019-03-27T00:39:44.685Z,0.00
2019-03-27T00:40:44.661Z,0.00
2019-03-27T00:41:44.637Z,0.00
2019-03-27T00:42:44.617Z,0.00
2019-03-27T00:43:44.595Z,0.00
2019-03-27T00:44:44.571Z,0.00
2019-03-27T00:45:44.542Z,0.00
2019-03-27T00:46:44.520Z,0.00
2019-03-27T00:47:44.496Z,0.00
2019-03-27T00:48:44.472Z,0.00
2019-03-27T00:49:44.448Z,0.00
2019-03-27T00:50:44.435Z,0.00
2019-03-27T00:51:44.407Z,0.00
2019-03-27T00:52:44.379Z,0.00
2019-03-27T00:53:44.360Z,0.00
2019-03-27T00:54:44.333Z,0.00
2019-03-27T00:55:44.308Z,0.00
2019-03-27T00:56:44.292Z,0.00
2019-03-27T00:57:44.263Z,0.00
2019-03-27T00:58:44.239Z,0.00
2019-03-27T00:59:44.217Z,0.00
2019-03-27T01:00:44.189Z,0.00
2019-03-27T01:01:44.170Z,0.00
2019-03-27T01:02:44.144Z,0.00
2019-03-27T01:03:44.124Z,0.00
2019-03-27T01:04:44.096Z,0.00
2019-03-27T01:05:44.076Z,0.00
2019-03-27T01:06:44.051Z,0.00
2019-03-27T01:07:44.028Z,0.00
2019-03-27T01:08:44.003Z,0.00
2019-03-27T01:09:43.980Z,0.00
2019-03-27T01:10:43.962Z,0.00
2019-03-27T01:11:43.934Z,0.00
2019-03-27T01:12:43.909Z,0.00
2019-03-27T01:13:43.893Z,0.00
2019-03-27T01:14:43.862Z,0.00
2019-03-27T01:15:43.840Z,0.00
2019-03-27T01:16:43.815Z,0.00
2019-03-27T01:17:43.795Z,0.00
2019-03-27T01:18:43.768Z,0.00
2019-03-27T01:19:43.758Z,0.00
2019-03-27T01:20:43.720Z,0.00
2019-03-27T01:21:43.695Z,0.00
2019-03-27T01:22:43.673Z,0.00
2019-03-27T01:23:43.650Z,0.00
2019-03-27T01:24:43.626Z,0.00
2019-03-27T01:25:43.607Z,0.00
2019-03-27T01:26:43.588Z,0.00
2019-03-27T01:27:43.556Z,0.00
2019-03-27T01:28:43.534Z,0.00
2019-03-27T01:29:43.509Z,0.00
2019-03-27T01:30:43.484Z,0.00
2019-03-27T01:31:43.465Z,0.00
2019-03-27T01:32:43.445Z,0.00
2019-03-27T01:33:43.416Z,0.00
2019-03-27T01:34:43.395Z,0.00
2019-03-27T01:35:43.367Z,0.00
2019-03-27T01:36:43.342Z,0.00
2019-03-27T01:37:43.320Z,0.00
2019-03-27T01:38:43.295Z,0.00
2019-03-27T01:39:43.273Z,0.00
2019-03-27T01:40:43.253Z,0.00
2019-03-27T01:41:43.222Z,0.00
2019-03-27T01:42:43.201Z,0.00
2019-03-27T01:43:43.176Z,0.00
2019-03-27T01:44:43.164Z,0.00
2019-03-27T01:45:52.410Z,0.00
2019-03-27T01:46:43.107Z,0.00
2019-03-27T01:47:43.081Z,0.00
2019-03-27T01:48:43.058Z,0.00
2019-03-27T01:49:43.045Z,0.00
2019-03-27T01:50:43.011Z,0.00
2019-03-27T01:51:42.988Z,0.00
2019-03-27T01:52:42.969Z,0.00
2019-03-27T01:53:42.940Z,0.00
2019-03-27T01:54:42.917Z,0.00
2019-03-27T01:55:42.896Z,0.00
2019-03-27T01:56:42.867Z,0.00
2019-03-27T01:57:42.843Z,0.00
2019-03-27T01:58:42.822Z,0.00
2019-03-27T01:59:42.807Z,0.00
2019-03-27T02:00:42.778Z,0.00
2019-03-27T02:01:42.748Z,0.00
2019-03-27T02:02:42.728Z,0.00
2019-03-27T02:03:42.703Z,0.00
2019-03-27T02:04:42.676Z,0.00
2019-03-27T02:05:42.654Z,0.00
2019-03-27T02:06:42.630Z,0.00
2019-03-27T02:07:42.610Z,0.00
2019-03-27T02:08:42.594Z,0.00
2019-03-27T02:09:42.560Z,0.00
2019-03-27T02:10:42.540Z,0.00
2019-03-27T02:11:42.511Z,0.00
2019-03-27T02:12:42.489Z,0.00
2019-03-27T02:13:42.463Z,0.00
2019-03-27T02:14:42.439Z,0.00
2019-03-27T02:15:42.415Z,0.00
2019-03-27T02:16:42.392Z,0.00
2019-03-27T02:17:42.371Z,0.00
2019-03-27T02:18:42.354Z,0.00
2019-03-27T02:19:42.321Z,0.00
2019-03-27T02:20:42.296Z,0.00
2019-03-27T02:21:42.271Z,0.00
2019-03-27T02:22:42.252Z,0.00
2019-03-27T02:23:42.226Z,0.00
2019-03-27T02:24:42.204Z,0.00
2019-03-27T02:25:42.178Z,0.00
2019-03-27T02:26:42.152Z,0.00
2019-03-27T02:27:42.128Z,0.00
2019-03-27T02:28:42.106Z,0.00
2019-03-27T02:29:42.082Z,0.00
2019-03-27T02:30:42.062Z,0.00
2019-03-27T02:31:42.036Z,0.00
2019-03-27T02:32:42.026Z,0.00
2019-03-27T02:33:41.989Z,0.00
2019-03-27T02:34:41.963Z,0.00
2019-03-27T02:35:41.949Z,0.00
2019-03-27T02:36:41.913Z,0.00
2019-03-27T02:37:41.893Z,0.00
2019-03-27T02:38:41.870Z,0.00
2019-03-27T02:39:41.847Z,0.00
2019-03-27T02:40:41.820Z,0.00
2019-03-27T02:41:41.804Z,0.00
2019-03-27T02:42:41.775Z,0.00
2019-03-27T02:43:41.753Z,0.00
2019-03-27T02:44:41.725Z,0.00
2019-03-27T02:45:41.698Z,0.00
2019-03-27T02:46:41.677Z,0.00
2019-03-27T02:47:41.656Z,0.00
2019-03-27T02:48:41.641Z,0.00
2019-03-27T02:49:41.604Z,0.00
2019-03-27T02:50:41.586Z,0.00
2019-03-27T02:51:41.558Z,0.00
2019-03-27T02:52:41.533Z,0.00
2019-03-27T02:53:41.515Z,0.00
2019-03-27T02:54:41.486Z,0.00
2019-03-27T02:55:41.464Z,0.00
2019-03-27T02:56:41.435Z,0.00
2019-03-27T02:57:41.419Z,0.00
2019-03-27T02:58:41.389Z,0.00
2019-03-27T02:59:41.370Z,0.00
2019-03-27T03:00:41.341Z,0.00
2019-03-27T03:01:41.327Z,0.00
2019-03-27T03:02:41.302Z,0.00
2019-03-27T03:03:41.274Z,0.00
2019-03-27T03:04:41.245Z,0.00
2019-03-27T03:05:41.222Z,0.00
2019-03-27T03:06:41.203Z,0.00
2019-03-27T03:07:41.173Z,0.00
2019-03-27T03:08:41.149Z,0.00
2019-03-27T03:09:41.136Z,0.00
2019-03-27T03:10:45.246Z,0.00
2019-03-27T03:11:41.078Z,0.00
2019-03-27T03:12:41.056Z,0.00
2019-03-27T03:13:41.031Z,0.00
2019-03-27T03:14:41.006Z,0.00
2019-03-27T03:15:40.983Z,0.00
2019-03-27T03:16:43.131Z,0.00
2019-03-27T03:17:40.935Z,0.00
2019-03-27T03:18:40.908Z,0.00
2019-03-27T03:19:40.896Z,0.00
2019-03-27T03:20:40.861Z,0.00
2019-03-27T03:21:40.838Z,0.00
2019-03-27T03:22:40.818Z,0.00
2019-03-27T03:23:40.790Z,0.00
2019-03-27T03:24:40.764Z,0.00
2019-03-27T03:25:40.749Z,0.00
2019-03-27T03:26:40.716Z,0.00
2019-03-27T03:27:40.768Z,0.00
2019-03-27T03:28:40.665Z,0.00
2019-03-27T03:29:40.644Z,0.00
2019-03-27T03:30:40.622Z,0.00
2019-03-27T03:31:40.645Z,0.00
2019-03-27T03:32:40.605Z,0.00
2019-03-27T03:33:40.564Z,0.00
2019-03-27T03:34:40.537Z,0.00
2019-03-27T03:35:40.502Z,0.00
2019-03-27T03:36:40.476Z,0.00
2019-03-27T03:37:40.454Z,0.00
2019-03-27T03:38:40.432Z,0.00
2019-03-27T03:39:40.400Z,0.00
2019-03-27T03:40:40.382Z,0.00
2019-03-27T03:41:40.355Z,0.00
2019-03-27T03:42:40.330Z,0.00
2019-03-27T03:43:40.304Z,0.00
2019-03-27T03:44:40.279Z,0.00
2019-03-27T03:45:40.257Z,0.00
2019-03-27T03:46:40.235Z,0.00
2019-03-27T03:47:40.215Z,0.00
2019-03-27T03:48:40.185Z,0.00
2019-03-27T03:49:40.164Z,0.00
2019-03-27T03:50:40.142Z,0.00
2019-03-27T03:51:40.112Z,0.00
2019-03-27T03:52:40.086Z,0.00
2019-03-27T03:53:40.064Z,0.00
2019-03-27T03:54:40.040Z,0.00
2019-03-27T03:55:40.022Z,0.00
2019-03-27T03:56:39.991Z,0.00
2019-03-27T03:57:39.969Z,0.00
2019-03-27T03:58:39.946Z,0.00
2019-03-27T03:59:39.926Z,0.00
2019-03-27T04:00:39.892Z,0.00
2019-03-27T04:01:39.873Z,0.00
2019-03-27T04:02:39.847Z,0.00
2019-03-27T04:03:39.826Z,0.00
2019-03-27T04:04:39.799Z,0.00
2019-03-27T04:05:39.777Z,0.00
2019-03-27T04:06:39.748Z,0.00
2019-03-27T04:07:39.724Z,0.00
2019-03-27T04:08:39.698Z,0.00
2019-03-27T04:09:39.679Z,0.00
2019-03-27T04:10:39.650Z,0.00
2019-03-27T04:11:39.626Z,0.00
2019-03-27T04:12:39.607Z,0.00
2019-03-27T04:13:39.586Z,0.00
2019-03-27T04:14:39.554Z,0.00
2019-03-27T04:15:39.528Z,0.00
2019-03-27T04:16:39.503Z,0.00
2019-03-27T04:17:39.479Z,0.00
2019-03-27T04:18:39.461Z,0.00
2019-03-27T04:19:39.432Z,0.00
2019-03-27T04:20:39.412Z,0.00
2019-03-27T04:21:39.383Z,0.00
2019-03-27T04:22:39.366Z,0.00
2019-03-27T04:23:39.335Z,0.00
2019-03-27T04:24:39.310Z,0.00
2019-03-27T04:26:07.297Z,0.00
2019-03-27T04:26:39.281Z,0.00
2019-03-27T04:27:39.243Z,0.00
2019-03-27T04:28:39.213Z,0.00
2019-03-27T04:29:39.191Z,0.00
2019-03-27T04:30:39.168Z,0.00
2019-03-27T04:31:39.145Z,0.00
2019-03-27T04:32:39.117Z,0.00
2019-03-27T04:33:39.093Z,0.00
2019-03-27T04:34:39.067Z,0.00
2019-03-27T04:35:39.042Z,0.00
2019-03-27T04:36:39.022Z,0.00
2019-03-27T04:37:38.997Z,0.00
2019-03-27T04:38:38.971Z,0.00
2019-03-27T04:39:38.955Z,0.00
2019-03-27T04:40:38.924Z,0.00
2019-03-27T04:41:38.898Z,0.00
2019-03-27T04:42:38.890Z,0.00
2019-03-27T04:43:38.856Z,0.00
2019-03-27T04:44:38.831Z,0.00
2019-03-27T04:45:38.804Z,0.00
2019-03-27T04:46:38.789Z,0.00
2019-03-27T04:47:38.757Z,0.00
2019-03-27T04:48:38.733Z,0.00
2019-03-27T04:49:38.706Z,0.00
2019-03-27T04:50:38.684Z,0.00
2019-03-27T04:51:38.660Z,0.00
2019-03-27T04:52:38.639Z,0.00
2019-03-27T04:53:38.610Z,0.00
2019-03-27T04:54:38.589Z,0.00
2019-03-27T04:55:38.562Z,0.00
2019-03-27T04:56:38.541Z,0.00
2019-03-27T04:57:38.518Z,0.00
2019-03-27T04:58:38.490Z,0.00
2019-03-27T04:59:38.467Z,0.00
2019-03-27T05:00:38.450Z,0.00
2019-03-27T05:01:38.414Z,0.00
2019-03-27T05:02:38.394Z,4.00
2019-03-27T05:03:38.372Z,0.00
2019-03-27T05:04:38.344Z,0.00
2019-03-27T05:05:38.316Z,0.00
2019-03-27T05:06:38.295Z,0.00
2019-03-27T05:07:38.277Z,4.00
2019-03-27T05:08:38.247Z,0.00
2019-03-27T05:09:38.221Z,0.00
2019-03-27T05:10:38.203Z,0.00
2019-03-27T05:11:38.175Z,4.00
2019-03-27T05:12:38.806Z,4.00
2019-03-27T05:13:38.125Z,0.00
2019-03-27T05:14:38.101Z,4.00
2019-03-27T05:15:38.079Z,4.00
2019-03-27T05:16:38.055Z,4.00
2019-03-27T05:17:45.809Z,4.00
2019-03-27T05:18:38.004Z,4.00
2019-03-27T05:19:37.986Z,8.00
2019-03-27T05:20:37.954Z,8.00
2019-03-27T05:21:37.932Z,4.00
2019-03-27T05:22:37.905Z,8.00
2019-03-27T05:23:37.883Z,8.00
2019-03-27T05:24:37.861Z,8.00
2019-03-27T05:25:37.833Z,12.00
2019-03-27T05:26:37.810Z,12.00
2019-03-27T05:27:37.787Z,8.00
2019-03-27T05:28:37.760Z,12.00
2019-03-27T05:29:37.749Z,12.00
2019-03-27T05:30:37.715Z,16.00
2019-03-27T05:31:37.692Z,16.00
2019-03-27T05:32:37.670Z,16.00
2019-03-27T05:33:37.643Z,20.00
2019-03-27T05:34:37.616Z,24.00
2019-03-27T05:35:37.596Z,24.00
2019-03-27T05:36:37.568Z,24.00
2019-03-27T05:37:37.547Z,24.00
2019-03-27T05:38:37.523Z,24.00
2019-03-27T05:39:37.503Z,24.00
2019-03-27T05:40:37.477Z,24.00
2019-03-27T05:41:37.468Z,28.00
2019-03-27T05:42:37.430Z,28.00
2019-03-27T05:43:37.402Z,28.00
2019-03-27T05:44:37.378Z,28.00
2019-03-27T05:45:37.356Z,32.00
2019-03-27T05:46:37.330Z,32.00
2019-03-27T05:47:37.305Z,32.00
2019-03-27T05:48:37.281Z,32.00
2019-03-27T05:49:37.258Z,32.00
2019-03-27T05:50:37.234Z,32.00
2019-03-27T05:51:37.209Z,32.00
2019-03-27T05:52:37.193Z,32.00
2019-03-27T05:53:37.166Z,32.00
2019-03-27T05:54:37.137Z,36.00
2019-03-27T05:55:37.113Z,40.00
2019-03-27T05:56:37.093Z,44.00
2019-03-27T05:57:37.068Z,44.00
2019-03-27T05:58:37.047Z,48.00
2019-03-27T05:59:37.022Z,48.00
2019-03-27T06:00:36.997Z,48.00
2019-03-27T06:01:36.968Z,52.00
2019-03-27T06:02:36.946Z,48.00
2019-03-27T06:03:36.922Z,48.00
2019-03-27T06:04:36.899Z,52.00
2019-03-27T06:05:36.874Z,56.00
2019-03-27T06:06:36.851Z,60.00
2019-03-27T06:07:36.827Z,64.00
2019-03-27T06:08:36.805Z,72.00
2019-03-27T06:09:36.785Z,76.00
2019-03-27T06:10:36.760Z,84.00
2019-03-27T06:11:36.732Z,92.00
2019-03-27T06:12:36.706Z,104.00
2019-03-27T06:13:36.682Z,104.00
2019-03-27T06:14:36.659Z,104.00
2019-03-27T06:15:36.637Z,108.00
2019-03-27T06:16:36.612Z,112.00
2019-03-27T06:17:36.592Z,112.00
2019-03-27T06:18:36.564Z,120.00
2019-03-27T06:19:36.552Z,136.00
2019-03-27T06:20:36.515Z,144.00
2019-03-27T06:21:36.502Z,140.00
2019-03-27T06:22:36.481Z,144.00
2019-03-27T06:23:36.447Z,132.00
2019-03-27T06:24:36.422Z,124.00
2019-03-27T06:25:36.399Z,132.00
2019-03-27T06:26:36.383Z,144.00
2019-03-27T06:27:36.358Z,144.00
2019-03-27T06:28:36.326Z,148.00
2019-03-27T06:29:36.303Z,148.00
2019-03-27T06:30:36.280Z,152.00
2019-03-27T06:31:36.259Z,152.00
2019-03-27T06:32:36.243Z,160.00
2019-03-27T06:33:36.207Z,152.00
2019-03-27T06:34:36.192Z,140.00
2019-03-27T06:35:36.161Z,152.00
2019-03-27T06:36:36.134Z,172.00
2019-03-27T06:37:36.112Z,168.00
2019-03-27T06:38:36.088Z,156.00
2019-03-27T06:39:36.065Z,156.00
2019-03-27T06:40:36.040Z,172.00
2019-03-27T06:41:36.014Z,180.00
2019-03-27T06:42:35.990Z,188.00
2019-03-27T06:43:35.969Z,196.00
2019-03-27T06:44:35.946Z,196.00
2019-03-27T06:45:35.919Z,188.00
2019-03-27T06:46:35.895Z,188.00
2019-03-27T06:47:35.873Z,184.00
2019-03-27T06:48:35.854Z,180.00
2019-03-27T06:49:35.824Z,176.00
2019-03-27T06:50:35.800Z,164.00
2019-03-27T06:51:40.383Z,156.00
2019-03-27T06:52:35.756Z,156.00
2019-03-27T06:53:35.732Z,144.00
2019-03-27T06:54:35.707Z,148.00
2019-03-27T06:55:35.684Z,164.00
2019-03-27T06:56:35.667Z,160.00
2019-03-27T06:57:35.636Z,156.00
2019-03-27T06:58:35.610Z,168.00
2019-03-27T06:59:35.593Z,172.00
2019-03-27T07:00:35.568Z,172.00
2019-03-27T07:01:35.539Z,192.00
2019-03-27T07:02:35.519Z,200.00
2019-03-27T07:03:35.494Z,192.00
2019-03-27T07:04:35.469Z,184.00
2019-03-27T07:05:35.446Z,188.00
2019-03-27T07:06:35.422Z,200.00
2019-03-27T07:07:35.400Z,224.00
2019-03-27T07:08:35.374Z,232.00
2019-03-27T07:09:35.353Z,236.00
2019-03-27T07:10:35.327Z,244.00
2019-03-27T07:11:35.319Z,260.00
2019-03-27T07:12:35.279Z,284.00
2019-03-27T07:13:35.261Z,288.00
2019-03-27T07:14:35.232Z,272.00
2019-03-27T07:15:35.854Z,248.00
2019-03-27T07:16:35.187Z,236.00
2019-03-27T07:17:35.162Z,236.00
2019-03-27T07:18:40.348Z,240.00
2019-03-27T07:19:35.116Z,244.00
2019-03-27T07:20:35.090Z,256.00
2019-03-27T07:21:35.081Z,264.00
2019-03-27T07:22:35.052Z,264.00
2019-03-27T07:23:35.020Z,260.00
2019-03-27T07:24:34.997Z,264.00
2019-03-27T07:25:34.978Z,276.00
2019-03-27T07:26:34.957Z,296.00
2019-03-27T07:27:34.928Z,328.00
2019-03-27T07:28:34.910Z,376.00
2019-03-27T07:29:34.878Z,420.00
2019-03-27T07:30:34.869Z,420.00
2019-03-27T07:31:34.839Z,380.00
2019-03-27T07:32:34.807Z,364.00
2019-03-27T07:33:34.785Z,376.00
2019-03-27T07:34:34.763Z,384.00
2019-03-27T07:35:34.750Z,396.00
2019-03-27T07:36:34.714Z,404.00
2019-03-27T07:37:34.692Z,408.00
2019-03-27T07:38:34.687Z,412.00
2019-03-27T07:39:34.645Z,640.00
2019-03-27T07:40:34.627Z,600.00
2019-03-27T07:41:34.599Z,408.00
2019-03-27T07:42:34.576Z,400.00
2019-03-27T07:43:34.554Z,412.00
2019-03-27T07:44:34.526Z,420.00
2019-03-27T07:45:34.501Z,424.00
2019-03-27T07:46:34.478Z,440.00
2019-03-27T07:47:34.456Z,472.00
2019-03-27T07:48:34.439Z,500.00
2019-03-27T07:49:34.412Z,496.00
2019-03-27T07:50:34.398Z,496.00
2019-03-27T07:51:34.364Z,472.00
2019-03-27T07:52:34.338Z,484.00
2019-03-27T07:53:34.314Z,504.00
2019-03-27T07:54:34.294Z,496.00
2019-03-27T07:55:34.274Z,452.00
2019-03-27T07:56:34.313Z,420.00
2019-03-27T07:57:34.220Z,408.00
2019-03-27T07:58:34.198Z,384.00
2019-03-27T07:59:34.177Z,372.00
2019-03-27T08:00:34.150Z,380.00
2019-03-27T08:01:34.134Z,408.00
2019-03-27T08:02:34.116Z,844.00
2019-03-27T08:03:34.088Z,680.00
2019-03-27T08:04:34.057Z,556.00
2019-03-27T08:05:34.039Z,612.00
2019-03-27T08:06:34.011Z,592.00
2019-03-27T08:07:33.991Z,584.00
2019-03-27T08:08:33.963Z,656.00
2019-03-27T08:09:33.941Z,580.00
2019-03-27T08:10:33.923Z,588.00
2019-03-27T08:11:34.011Z,548.00
2019-03-27T08:12:33.872Z,504.00
2019-03-27T08:13:33.948Z,508.00
2019-03-27T08:14:33.828Z,508.00
2019-03-27T08:15:33.800Z,508.00
2019-03-27T08:16:33.776Z,516.00
2019-03-27T08:17:33.758Z,524.00
2019-03-27T08:18:33.730Z,544.00
2019-03-27T08:19:33.712Z,600.00
2019-03-27T08:20:33.683Z,580.00
2019-03-27T08:21:33.662Z,564.00
2019-03-27T08:22:33.635Z,992.00
2019-03-27T08:23:33.618Z,1668.00
2019-03-27T08:24:33.589Z,1724.00
2019-03-27T08:25:33.565Z,1376.00
2019-03-27T08:26:33.545Z,1108.00
2019-03-27T08:27:33.518Z,1048.00
2019-03-27T08:28:33.496Z,884.00
2019-03-27T08:29:33.476Z,612.00
2019-03-27T08:30:33.450Z,680.00
2019-03-27T08:31:33.428Z,696.00
2019-03-27T08:32:33.404Z,620.00
2019-03-27T08:33:33.380Z,720.00
2019-03-27T08:34:33.369Z,1684.00
2019-03-27T08:35:33.339Z,1656.00
2019-03-27T08:36:33.311Z,1648.00
2019-03-27T08:37:33.294Z,1740.00
2019-03-27T08:38:33.267Z,1840.00
2019-03-27T08:39:33.244Z,852.00
2019-03-27T08:40:33.218Z,1740.00
2019-03-27T08:41:33.207Z,748.00
2019-03-27T08:42:33.171Z,1848.00
2019-03-27T08:43:33.149Z,792.00
2019-03-27T08:44:33.137Z,752.00
2019-03-27T08:45:33.103Z,872.00
2019-03-27T08:46:33.082Z,780.00
2019-03-27T08:47:33.060Z,696.00
2019-03-27T08:48:33.037Z,764.00
2019-03-27T08:49:33.014Z,896.00
2019-03-27T08:50:32.989Z,576.00
2019-03-27T08:51:32.965Z,544.00
2019-03-27T08:52:32.943Z,1536.00
2019-03-27T08:53:32.929Z,1532.00
2019-03-27T08:54:32.902Z,1600.00
2019-03-27T08:55:32.875Z,1616.00
2019-03-27T08:56:32.848Z,1648.00
2019-03-27T08:57:32.827Z,1656.00
2019-03-27T08:58:32.805Z,1596.00
2019-03-27T08:59:32.799Z,1392.00
2019-03-27T09:00:32.759Z,1028.00
2019-03-27T09:01:32.744Z,1252.00
2019-03-27T09:02:32.719Z,1368.00
2019-03-27T09:03:32.691Z,1332.00
2019-03-27T09:04:32.678Z,1308.00
2019-03-27T09:05:32.649Z,1308.00
2019-03-27T09:06:34.039Z,1312.00
2019-03-27T09:07:32.601Z,1292.00
2019-03-27T09:08:32.576Z,1268.00
2019-03-27T09:09:32.553Z,1348.00
2019-03-27T09:10:32.532Z,1468.00
2019-03-27T09:11:32.510Z,1592.00
2019-03-27T09:12:32.489Z,1616.00
2019-03-27T09:13:32.465Z,1584.00
2019-03-27T09:14:32.443Z,1596.00
2019-03-27T09:15:32.417Z,1600.00
2019-03-27T09:16:32.393Z,1652.00
2019-03-27T09:17:32.372Z,1760.00
2019-03-27T09:18:32.350Z,1852.00
2019-03-27T09:19:36.085Z,1792.00
2019-03-27T09:20:32.304Z,1884.00
2019-03-27T09:21:32.285Z,1928.00
2019-03-27T09:22:32.263Z,1928.00
2019-03-27T09:23:32.242Z,1916.00
2019-03-27T09:24:32.217Z,1944.00
2019-03-27T09:25:32.193Z,1988.00
2019-03-27T09:26:32.175Z,1068.00
2019-03-27T09:27:32.149Z,2008.00
2019-03-27T09:28:32.153Z,1940.00
2019-03-27T09:29:32.113Z,1964.00
2019-03-27T09:30:32.084Z,1500.00
2019-03-27T09:31:43.947Z,2056.00
2019-03-27T09:32:32.035Z,1980.00
2019-03-27T09:33:32.022Z,2004.00
2019-03-27T09:34:31.995Z,2020.00
2019-03-27T09:35:31.977Z,1960.00
2019-03-27T09:36:31.947Z,1520.00
2019-03-27T09:37:31.939Z,1840.00
2019-03-27T09:38:31.922Z,916.00
2019-03-27T09:39:31.882Z,1456.00
2019-03-27T09:40:31.860Z,964.00
2019-03-27T09:41:31.839Z,1944.00
2019-03-27T09:42:31.819Z,1920.00
2019-03-27T09:43:31.794Z,948.00
2019-03-27T09:44:31.775Z,772.00
2019-03-27T09:45:31.751Z,760.00
2019-03-27T09:46:31.732Z,2008.00
2019-03-27T09:47:34.512Z,1980.00
2019-03-27T09:48:31.689Z,1480.00
2019-03-27T09:49:31.663Z,2100.00
2019-03-27T09:50:31.638Z,2080.00
2019-03-27T09:51:31.627Z,704.00
2019-03-27T09:52:31.613Z,572.00
2019-03-27T09:53:31.580Z,476.00
2019-03-27T09:54:31.564Z,480.00
2019-03-27T09:55:31.530Z,476.00
2019-03-27T09:56:31.514Z,480.00
2019-03-27T09:57:31.490Z,480.00
2019-03-27T09:58:31.468Z,532.00
2019-03-27T09:59:31.442Z,920.00
2019-03-27T10:00:31.420Z,1896.00
2019-03-27T10:01:31.399Z,1552.00
2019-03-27T10:02:31.376Z,2156.00
2019-03-27T10:03:31.354Z,2200.00
2019-03-27T10:04:31.334Z,1792.00
2019-03-27T10:05:31.311Z,1144.00
2019-03-27T10:06:31.286Z,1672.00
2019-03-27T10:07:31.266Z,1152.00
2019-03-27T10:08:31.244Z,1080.00
2019-03-27T10:09:31.221Z,1236.00
2019-03-27T10:10:31.201Z,1088.00
2019-03-27T10:11:31.177Z,1128.00
2019-03-27T10:12:31.161Z,1052.00
2019-03-27T10:13:31.129Z,1596.00
2019-03-27T10:14:31.112Z,1368.00
2019-03-27T10:15:31.086Z,1180.00
2019-03-27T10:16:31.075Z,1192.00
2019-03-27T10:17:31.059Z,1168.00
2019-03-27T10:18:31.020Z,1060.00
2019-03-27T10:19:30.999Z,920.00
2019-03-27T10:20:30.975Z,804.00
2019-03-27T10:21:30.963Z,856.00
2019-03-27T10:22:30.931Z,1032.00
2019-03-27T10:23:30.910Z,1220.00
2019-03-27T10:24:30.888Z,1336.00
2019-03-27T10:25:30.872Z,1372.00
2019-03-27T10:26:30.847Z,1256.00
2019-03-27T10:27:30.824Z,1196.00
2019-03-27T10:28:30.803Z,1152.00
2019-03-27T10:29:30.778Z,1120.00
2019-03-27T10:30:30.753Z,1068.00
2019-03-27T10:31:30.743Z,1048.00
2019-03-27T10:32:30.708Z,1056.00
2019-03-27T10:33:30.688Z,1076.00
2019-03-27T10:34:30.670Z,1052.00
2019-03-27T10:35:30.642Z,1048.00
2019-03-27T10:36:30.617Z,1032.00
2019-03-27T10:37:30.600Z,1008.00
2019-03-27T10:38:30.587Z,992.00
2019-03-27T10:39:30.553Z,1000.00
2019-03-27T10:40:30.529Z,1056.00
2019-03-27T10:41:30.510Z,1124.00
2019-03-27T10:42:30.495Z,1152.00
2019-03-27T10:43:30.463Z,1448.00
2019-03-27T10:44:30.442Z,1472.00
2019-03-27T10:45:30.418Z,1768.00
2019-03-27T10:46:30.396Z,1648.00
2019-03-27T10:47:30.375Z,2088.00
2019-03-27T10:48:30.356Z,1704.00
2019-03-27T10:49:30.330Z,1528.00
2019-03-27T10:50:30.310Z,1692.00
2019-03-27T10:51:30.286Z,2032.00
2019-03-27T10:52:30.290Z,2188.00
2019-03-27T10:53:30.247Z,1460.00
2019-03-27T10:54:30.220Z,1284.00
2019-03-27T10:55:30.206Z,1744.00
2019-03-27T10:56:30.173Z,1580.00
2019-03-27T10:57:30.153Z,1292.00
2019-03-27T10:58:30.182Z,1680.00
2019-03-27T10:59:30.111Z,1596.00
2019-03-27T11:00:30.087Z,1740.00
2019-03-27T11:01:30.066Z,1720.00
2019-03-27T11:02:30.043Z,1276.00
2019-03-27T11:03:30.024Z,820.00
2019-03-27T11:04:30.002Z,732.00
2019-03-27T11:05:29.978Z,704.00
2019-03-27T11:06:29.957Z,692.00
2019-03-27T11:07:29.936Z,684.00
2019-03-27T11:08:29.924Z,684.00
2019-03-27T11:09:29.899Z,676.00
2019-03-27T11:10:29.870Z,664.00
2019-03-27T11:11:29.853Z,660.00
2019-03-27T11:12:29.825Z,684.00
2019-03-27T11:13:29.803Z,724.00
2019-03-27T11:14:37.749Z,768.00
2019-03-27T11:15:29.761Z,792.00
2019-03-27T11:16:29.745Z,804.00
2019-03-27T11:17:29.715Z,804.00
2019-03-27T11:18:29.696Z,812.00
2019-03-27T11:19:29.787Z,852.00
2019-03-27T11:20:31.393Z,984.00
2019-03-27T11:21:29.628Z,1032.00
2019-03-27T11:22:29.613Z,1092.00
2019-03-27T11:23:29.584Z,1252.00
2019-03-27T11:24:29.568Z,1280.00
2019-03-27T11:25:32.922Z,1256.00
2019-03-27T11:26:29.520Z,1472.00
2019-03-27T11:27:29.499Z,1700.00
2019-03-27T11:28:29.486Z,1732.00
2019-03-27T11:29:29.451Z,1964.00
2019-03-27T11:30:29.435Z,1720.00
2019-03-27T11:31:29.408Z,1832.00
2019-03-27T11:32:29.387Z,1872.00
2019-03-27T11:33:29.366Z,1868.00
2019-03-27T11:34:29.342Z,2000.00
2019-03-27T11:35:29.323Z,1820.00
2019-03-27T11:36:29.311Z,1840.00
2019-03-27T11:37:29.282Z,1588.00
2019-03-27T11:38:29.269Z,1508.00
2019-03-27T11:39:29.240Z,1864.00
2019-03-27T11:40:29.215Z,1660.00
2019-03-27T11:41:29.195Z,1304.00
2019-03-27T11:42:29.184Z,1176.00
2019-03-27T11:43:29.157Z,1180.00
2019-03-27T11:44:29.130Z,1112.00
2019-03-27T11:45:29.109Z,816.00
2019-03-27T11:46:32.110Z,880.00
2019-03-27T11:47:29.066Z,748.00
2019-03-27T11:48:29.051Z,712.00
2019-03-27T11:49:29.030Z,680.00
2019-03-27T11:50:29.000Z,652.00
2019-03-27T11:51:28.985Z,636.00
2019-03-27T11:52:29.842Z,616.00
2019-03-27T11:53:28.936Z,580.00
2019-03-27T11:54:28.914Z,548.00
2019-03-27T11:55:28.894Z,536.00
2019-03-27T11:56:28.878Z,540.00
2019-03-27T11:57:28.855Z,552.00
2019-03-27T11:58:28.824Z,600.00
2019-03-27T11:59:28.807Z,668.00
2019-03-27T12:00:28.786Z,764.00
2019-03-27T12:01:39.228Z,1200.00
2019-03-27T12:02:28.740Z,1520.00
2019-03-27T12:03:28.718Z,1308.00
2019-03-27T12:04:28.699Z,816.00
2019-03-27T12:05:28.673Z,800.00
2019-03-27T12:06:28.659Z,832.00
2019-03-27T12:07:28.636Z,796.00
2019-03-27T12:08:28.614Z,784.00
2019-03-27T12:09:28.587Z,792.00
2019-03-27T12:10:28.566Z,840.00
2019-03-27T12:11:28.553Z,1016.00
2019-03-27T12:12:28.523Z,1400.00
2019-03-27T12:13:28.501Z,876.00
2019-03-27T12:14:28.484Z,804.00
2019-03-27T12:15:28.460Z,800.00
2019-03-27T12:16:28.435Z,796.00
2019-03-27T12:17:28.414Z,816.00
2019-03-27T12:18:28.398Z,1288.00
2019-03-27T12:19:28.381Z,1748.00
2019-03-27T12:20:28.348Z,2304.00
2019-03-27T12:21:28.332Z,1908.00
2019-03-27T12:22:28.307Z,2160.00
2019-03-27T12:23:28.284Z,2072.00
2019-03-27T12:24:28.912Z,1172.00
2019-03-27T12:25:28.242Z,940.00
2019-03-27T12:26:28.231Z,992.00
2019-03-27T12:27:28.206Z,752.00
2019-03-27T12:28:28.176Z,688.00
2019-03-27T12:29:28.155Z,688.00
2019-03-27T12:30:28.136Z,772.00
2019-03-27T12:31:28.126Z,1220.00
2019-03-27T12:32:28.097Z,900.00
2019-03-27T12:33:28.073Z,980.00
2019-03-27T12:34:28.047Z,948.00
2019-03-27T12:35:28.031Z,1068.00
2019-03-27T12:36:28.006Z,1032.00
2019-03-27T12:37:27.985Z,1168.00
2019-03-27T12:38:27.962Z,1120.00
2019-03-27T12:39:27.951Z,2504.00
2019-03-27T12:40:27.924Z,2260.00
2019-03-27T12:41:27.903Z,2144.00
2019-03-27T12:42:27.892Z,2312.00
2019-03-27T12:43:27.858Z,2332.00
2019-03-27T12:44:27.832Z,2156.00